createdAt,value
2023-03-25T00:01:33.664Z,6.93
2023-03-25T00:06:26.110Z,9.32
2023-03-25T00:11:23.296Z,9.40
2023-03-25T00:16:17.312Z,8.57
2023-03-25T00:21:16.675Z,7.20
2023-03-25T00:26:08.849Z,7.18
2023-03-25T00:31:03.523Z,6.65
2023-03-25T00:36:00.003Z,6.78
2023-03-25T00:40:55.034Z,6.78
2023-03-25T00:45:48.766Z,6.57
2023-03-25T00:50:43.975Z,7.50
2023-03-25T00:55:41.746Z,7.97
2023-03-25T01:00:35.210Z,10.68
2023-03-25T01:05:28.010Z,6.75
2023-03-25T01:10:19.625Z,9.93
2023-03-25T01:15:19.149Z,11.45
2023-03-25T01:20:13.801Z,7.43
2023-03-25T01:25:07.397Z,9.68
2023-03-25T01:30:00.167Z,8.32
2023-03-25T01:34:53.982Z,9.30
2023-03-25T01:39:47.478Z,10.25
2023-03-25T01:45:08.853Z,9.43
2023-03-25T01:50:03.200Z,7.32
2023-03-25T01:54:56.224Z,8.13
2023-03-25T01:59:48.486Z,8.05
2023-03-25T02:05:02.697Z,5.93
2023-03-25T02:09:59.624Z,9.77
2023-03-25T02:14:55.521Z,9.47
2023-03-25T02:20:24.049Z,10.30
2023-03-25T02:25:50.322Z,8.10
2023-03-25T02:31:21.158Z,6.63
2023-03-25T02:36:41.570Z,7.68
2023-03-25T02:41:43.064Z,8.00
2023-03-25T02:46:40.585Z,11.77
2023-03-25T02:51:36.548Z,9.85
2023-03-25T02:56:34.058Z,11.35
2023-03-25T03:01:35.688Z,13.57
2023-03-25T03:06:29.144Z,10.00
2023-03-25T03:11:23.941Z,11.53
2023-03-25T03:16:29.798Z,8.83
2023-03-25T03:21:33.979Z,11.77
2023-03-25T03:26:32.789Z,11.13
2023-03-25T03:31:59.241Z,13.35
2023-03-25T03:36:54.307Z,13.55
2023-03-25T03:41:54.297Z,15.25
2023-03-25T03:46:52.138Z,11.80
2023-03-25T03:51:56.623Z,14.77
2023-03-25T03:56:58.640Z,15.90
2023-03-25T04:02:02.761Z,17.10
2023-03-25T04:07:06.481Z,12.13
2023-03-25T04:12:05.089Z,15.50
2023-03-25T04:17:00.427Z,13.67
2023-03-25T04:21:55.686Z,13.45
2023-03-25T04:26:50.139Z,15.40
2023-03-25T04:31:46.985Z,15.57
2023-03-25T04:36:39.742Z,15.98
2023-03-25T04:41:32.797Z,13.55
2023-03-25T04:46:27.064Z,17.80
2023-03-25T04:51:21.671Z,14.73
2023-03-25T04:56:26.408Z,15.30
2023-03-25T05:01:31.091Z,15.77
2023-03-25T05:06:24.678Z,10.60
2023-03-25T05:11:20.339Z,11.70
2023-03-25T05:16:16.913Z,11.88
2023-03-25T05:21:13.841Z,10.30
2023-03-25T05:26:05.500Z,11.45
2023-03-25T05:31:09.493Z,11.40
2023-03-25T05:36:02.000Z,11.70
2023-03-25T05:40:56.219Z,11.43
2023-03-25T05:45:47.176Z,10.95
2023-03-25T05:50:43.166Z,8.00
2023-03-25T05:55:38.742Z,10.65
2023-03-25T06:00:38.223Z,12.85
2023-03-25T06:05:37.926Z,11.98
2023-03-25T06:10:37.819Z,11.60
2023-03-25T06:15:42.043Z,8.98
2023-03-25T06:20:35.387Z,15.43
2023-03-25T06:25:37.617Z,10.40
2023-03-25T06:30:33.736Z,12.48
2023-03-25T06:35:32.124Z,14.60
2023-03-25T06:40:33.500Z,14.87
2023-03-25T06:45:32.329Z,13.85
2023-03-25T06:50:50.407Z,16.23
2023-03-25T06:55:48.746Z,17.65
2023-03-25T07:00:53.470Z,16.10
2023-03-25T07:05:46.427Z,13.47
2023-03-25T07:10:41.205Z,16.13
2023-03-25T07:15:36.732Z,11.77
2023-03-25T07:20:27.993Z,15.43
2023-03-25T07:25:22.220Z,15.75
2023-03-25T07:30:14.540Z,15.23
2023-03-25T07:35:09.982Z,14.05
2023-03-25T07:40:05.979Z,14.85
2023-03-25T07:44:59.784Z,17.83
2023-03-25T07:50:03.015Z,11.93
2023-03-25T07:54:55.963Z,13.25
2023-03-25T07:59:46.582Z,14.20
2023-03-25T08:04:50.656Z,12.63
2023-03-25T08:09:45.466Z,16.65
2023-03-25T08:14:39.715Z,19.33
2023-03-25T08:19:35.299Z,17.88
2023-03-25T08:24:30.549Z,16.92
2023-03-25T08:29:27.287Z,18.95
2023-03-25T08:34:22.205Z,16.42
2023-03-25T08:39:17.654Z,20.73
2023-03-25T08:44:09.904Z,20.85
2023-03-25T08:49:05.268Z,21.85
2023-03-25T08:53:59.880Z,18.48
2023-03-25T08:58:51.019Z,21.05
2023-03-25T09:03:45.634Z,21.40
2023-03-25T09:08:37.155Z,21.60
2023-03-25T09:13:40.130Z,20.33
2023-03-25T09:18:32.244Z,17.58
2023-03-25T09:23:23.616Z,24.48
2023-03-25T09:28:13.984Z,23.98
2023-03-25T09:33:10.355Z,18.13
2023-03-25T09:38:02.132Z,21.70
2023-03-25T09:43:37.978Z,20.98
2023-03-25T09:48:37.952Z,16.08
2023-03-25T09:53:39.674Z,12.67
2023-03-25T09:58:44.099Z,16.60
2023-03-25T10:03:58.511Z,15.52
2023-03-25T10:08:58.929Z,16.48
2023-03-25T10:13:57.538Z,15.73
2023-03-25T10:19:17.980Z,20.60
2023-03-25T10:24:22.107Z,17.83
2023-03-25T10:29:16.752Z,15.23
2023-03-25T10:34:25.536Z,16.00
2023-03-25T10:39:23.108Z,16.33
2023-03-25T10:44:17.517Z,13.05
2023-03-25T10:49:16.220Z,14.97
2023-03-25T10:54:14.171Z,11.35
2023-03-25T10:59:12.714Z,16.60
2023-03-25T11:04:18.096Z,16.05
2023-03-25T11:09:24.762Z,16.98
2023-03-25T11:14:28.298Z,16.35
2023-03-25T11:19:27.300Z,17.23
2023-03-25T11:24:23.470Z,14.88
2023-03-25T11:29:32.186Z,15.10
2023-03-25T11:34:30.587Z,14.95
2023-03-25T11:39:29.632Z,14.97
2023-03-25T11:44:27.291Z,15.60
2023-03-25T11:49:24.446Z,15.83
2023-03-25T11:54:21.062Z,14.77
2023-03-25T11:59:21.613Z,11.68
2023-03-25T12:04:19.987Z,15.23
2023-03-25T12:09:15.466Z,13.82
2023-03-25T12:14:26.481Z,13.43
2023-03-25T12:19:25.984Z,12.98
2023-03-25T12:24:35.082Z,10.30
2023-03-25T12:29:44.340Z,16.08
2023-03-25T12:34:47.152Z,10.45
2023-03-25T12:39:53.941Z,11.20
2023-03-25T12:45:09.477Z,14.05
2023-03-25T12:50:25.452Z,11.35
2023-03-25T12:55:35.658Z,10.77
2023-03-25T13:00:56.922Z,8.30
2023-03-25T13:05:53.144Z,11.98
2023-03-25T13:10:48.374Z,10.90
2023-03-25T13:15:47.005Z,13.40
2023-03-25T13:20:43.143Z,15.20
2023-03-25T13:25:39.805Z,8.60
2023-03-25T13:30:42.301Z,8.40
2023-03-25T13:35:42.315Z,11.35
2023-03-25T13:40:47.837Z,10.23
2023-03-25T13:45:52.335Z,10.77
2023-03-25T13:50:50.508Z,10.98
2023-03-25T13:55:45.336Z,11.50
2023-03-25T14:01:04.055Z,7.80
2023-03-25T14:06:20.634Z,8.20
2023-03-25T14:11:26.960Z,10.35
2023-03-25T14:16:24.228Z,10.00
2023-03-25T14:21:38.837Z,10.38
2023-03-25T14:26:33.041Z,10.97
2023-03-25T14:31:34.414Z,12.95
2023-03-25T14:36:57.435Z,7.55
2023-03-25T14:42:29.378Z,13.52
2023-03-25T14:47:37.616Z,11.73
2023-03-25T14:52:38.012Z,12.98
2023-03-25T14:57:36.762Z,12.65
2023-03-25T15:02:34.101Z,17.58
2023-03-25T15:07:43.203Z,14.07
2023-03-25T15:12:43.034Z,16.15
2023-03-25T15:17:48.018Z,15.23
2023-03-25T15:22:43.804Z,16.73
2023-03-25T15:28:09.268Z,14.53
2023-03-25T15:33:18.275Z,12.23
2023-03-25T15:38:35.718Z,10.87
2023-03-25T15:44:02.797Z,13.07
2023-03-25T15:49:18.863Z,15.18
2023-03-25T15:54:40.111Z,16.10
2023-03-25T15:59:41.960Z,15.90
2023-03-25T16:04:43.417Z,16.15
2023-03-25T16:09:45.301Z,14.13
2023-03-25T16:14:39.469Z,13.63
2023-03-25T16:19:36.179Z,13.70
2023-03-25T16:24:30.144Z,16.00
2023-03-25T16:29:24.340Z,18.50
2023-03-25T16:34:19.058Z,15.50
2023-03-25T16:39:16.199Z,20.33
2023-03-25T16:44:07.414Z,18.77
2023-03-25T16:49:01.813Z,18.27
2023-03-25T16:53:59.777Z,16.88
2023-03-25T16:59:03.196Z,17.27
2023-03-25T17:03:55.578Z,18.27
2023-03-25T17:08:54.067Z,19.58
2023-03-25T17:13:56.745Z,19.10
2023-03-25T17:18:55.171Z,19.55
2023-03-25T17:23:51.722Z,19.45
2023-03-25T17:28:45.410Z,15.60
2023-03-25T17:33:40.581Z,19.08
2023-03-25T17:38:40.792Z,17.25
2023-03-25T17:43:40.573Z,24.52
2023-03-25T17:48:32.469Z,20.07
2023-03-25T17:53:27.493Z,21.03
2023-03-25T17:58:22.849Z,17.00
2023-03-25T18:03:16.945Z,16.63
2023-03-25T18:08:10.454Z,16.10
2023-03-25T18:13:03.937Z,18.35
2023-03-25T18:17:55.928Z,21.27
2023-03-25T18:22:48.741Z,25.15
2023-03-25T18:27:44.133Z,23.50
2023-03-25T18:32:45.202Z,18.48
2023-03-25T18:37:38.987Z,18.10
2023-03-25T18:42:38.893Z,18.90
2023-03-25T18:47:29.501Z,17.48
2023-03-25T18:52:24.793Z,16.10
2023-03-25T18:57:15.577Z,10.90
2023-03-25T19:02:05.964Z,7.40
2023-03-25T19:06:57.345Z,5.07
2023-03-25T19:11:53.068Z,7.10
2023-03-25T19:16:57.191Z,6.57
2023-03-25T19:22:11.334Z,10.87
2023-03-25T19:27:10.165Z,12.50
2023-03-25T19:32:04.999Z,14.45
2023-03-25T19:37:03.314Z,20.10
2023-03-25T19:41:59.921Z,23.17
2023-03-25T19:46:56.069Z,20.33
2023-03-25T19:51:51.891Z,20.90
2023-03-25T19:56:46.772Z,18.50
2023-03-25T20:01:38.262Z,20.95
2023-03-25T20:06:31.834Z,25.23
2023-03-25T20:11:23.555Z,25.15
2023-03-25T20:16:20.968Z,23.48
2023-03-25T20:21:15.742Z,26.85
2023-03-25T20:26:13.273Z,24.88
2023-03-25T20:31:18.998Z,27.77
2023-03-25T20:36:14.116Z,21.85
2023-03-25T20:41:04.854Z,22.87
2023-03-25T20:46:01.949Z,19.92
2023-03-25T20:50:54.009Z,16.60
2023-03-25T20:55:48.702Z,15.60
2023-03-25T21:00:53.737Z,12.20
2023-03-25T21:05:50.157Z,6.72
2023-03-25T21:10:41.486Z,5.72
2023-03-25T21:15:35.085Z,5.33
2023-03-25T21:20:29.554Z,4.80
2023-03-25T21:25:34.940Z,5.43
2023-03-25T21:30:26.018Z,5.65
2023-03-25T21:35:19.448Z,5.50
2023-03-25T21:40:15.328Z,8.18
2023-03-25T21:45:18.301Z,6.93
2023-03-25T21:50:13.599Z,7.70
2023-03-25T21:55:14.850Z,7.57
2023-03-25T22:00:14.942Z,10.57
2023-03-25T22:05:05.294Z,12.30
2023-03-25T22:09:57.496Z,14.23
2023-03-25T22:14:50.872Z,15.55
2023-03-25T22:19:47.314Z,18.97
2023-03-25T22:24:38.667Z,23.88
2023-03-25T22:29:38.857Z,25.43
2023-03-25T22:34:32.278Z,31.83
2023-03-25T22:39:27.970Z,31.77
2023-03-25T22:44:22.073Z,32.97
2023-03-25T22:49:13.427Z,33.42
2023-03-25T22:54:05.688Z,37.93
2023-03-25T22:58:59.816Z,38.75
2023-03-25T23:03:51.381Z,42.20
2023-03-25T23:08:44.008Z,39.90
2023-03-25T23:13:35.171Z,42.47
2023-03-25T23:18:29.151Z,40.05
2023-03-25T23:23:22.788Z,42.72
2023-03-25T23:28:22.741Z,44.90
2023-03-25T23:33:15.937Z,42.93
2023-03-25T23:38:10.264Z,46.47
2023-03-25T23:43:03.361Z,41.00
2023-03-25T23:47:54.818Z,37.70
2023-03-25T23:52:45.720Z,38.37
2023-03-25T23:57:45.006Z,34.17
